createdAt,value
2018-03-20T01:42:48.327Z,1.62
2018-03-20T01:42:48.920Z,1.52
2018-03-20T01:42:49.500Z,1.55
2018-03-20T01:42:50.100Z,1.68
2018-03-20T01:42:50.698Z,1.52
2018-03-20T01:42:51.298Z,1.55
2018-03-20T01:42:51.899Z,1.52
2018-03-20T01:42:52.499Z,1.52
2018-03-20T01:43:45.980Z,1.61
2018-03-20T01:43:46.554Z,1.60
2018-03-20T01:43:47.152Z,1.65
2018-03-20T01:43:47.751Z,1.61
2018-03-20T01:43:48.352Z,1.54
2018-03-20T01:43:48.951Z,1.64
2018-03-20T01:43:49.557Z,1.52
2018-03-20T01:43:50.150Z,1.54
2018-03-20T01:44:43.634Z,1.64
2018-03-20T01:44:44.205Z,1.65
2018-03-20T01:44:44.805Z,1.69
2018-03-20T01:44:45.405Z,1.65
2018-03-20T01:44:46.006Z,1.64
2018-03-20T01:44:46.604Z,1.71
2018-03-20T01:44:47.204Z,1.69
2018-03-20T01:44:47.803Z,1.60
2018-03-20T01:45:42.321Z,1.55
2018-03-20T01:45:42.880Z,1.62
2018-03-20T01:45:43.482Z,1.61
2018-03-20T01:45:44.080Z,1.64
2018-03-20T01:45:44.680Z,1.64
2018-03-20T01:45:45.280Z,1.65
2018-03-20T01:45:45.882Z,1.65
2018-03-20T01:45:46.479Z,1.62
2018-03-20T01:46:40.985Z,1.62
2018-03-20T01:46:41.558Z,1.65
2018-03-20T01:46:42.157Z,1.62
2018-03-20T01:46:42.758Z,1.62
2018-03-20T01:46:43.356Z,1.71
2018-03-20T01:46:43.963Z,1.62
2018-03-20T01:46:44.556Z,1.61
2018-03-20T01:46:45.157Z,1.69
2018-03-20T01:47:39.660Z,1.64
2018-03-20T01:47:40.233Z,1.60
2018-03-20T01:47:40.833Z,1.61
2018-03-20T01:47:41.432Z,1.62
2018-03-20T01:47:42.032Z,1.71
2018-03-20T01:47:42.632Z,1.68
2018-03-20T01:47:43.234Z,1.61
2018-03-20T01:47:43.831Z,1.68
2018-03-20T01:48:38.335Z,1.71
2018-03-20T01:48:38.908Z,1.65
2018-03-20T01:48:39.507Z,1.68
2018-03-20T01:48:40.109Z,1.65
2018-03-20T01:48:40.712Z,1.75
2018-03-20T01:48:41.309Z,1.65
2018-03-20T01:48:41.907Z,1.71
2018-03-20T01:48:42.510Z,1.69
2018-03-20T01:49:35.990Z,1.75
2018-03-20T01:49:36.562Z,1.69
2018-03-20T01:49:37.162Z,1.73
2018-03-20T01:49:37.761Z,1.72
2018-03-20T01:49:38.361Z,1.68
2018-03-20T01:49:38.961Z,1.71
2018-03-20T01:49:39.561Z,1.71
2018-03-20T01:49:40.161Z,1.71
2018-03-20T01:50:33.642Z,1.65
2018-03-20T01:50:34.214Z,1.72
2018-03-20T01:50:34.814Z,1.64
2018-03-20T01:50:35.413Z,1.76
2018-03-20T01:50:36.014Z,1.79
2018-03-20T01:50:36.616Z,1.71
2018-03-20T01:50:37.212Z,1.75
2018-03-20T01:50:37.811Z,1.65
2018-03-20T01:51:32.316Z,1.72
2018-03-20T01:51:32.891Z,1.69
2018-03-20T01:51:33.489Z,1.69
2018-03-20T01:51:34.090Z,1.73
2018-03-20T01:51:34.689Z,1.72
2018-03-20T01:51:35.289Z,1.68
2018-03-20T01:51:35.889Z,1.71
2018-03-20T01:51:36.489Z,1.83
2018-03-20T01:52:30.990Z,1.87
2018-03-20T01:52:31.565Z,1.79
2018-03-20T01:52:32.165Z,1.80
2018-03-20T01:52:32.769Z,1.75
2018-03-20T01:52:33.366Z,1.89
2018-03-20T01:52:33.966Z,1.79
2018-03-20T01:52:34.565Z,1.78
2018-03-20T01:52:35.163Z,1.91
2018-03-20T01:53:29.675Z,1.79
2018-03-20T01:53:30.241Z,1.79
2018-03-20T01:53:30.840Z,1.79
2018-03-20T01:53:31.441Z,1.79
2018-03-20T01:53:32.040Z,1.87
2018-03-20T01:53:32.640Z,1.82
2018-03-20T01:53:33.239Z,1.79
2018-03-20T01:53:33.840Z,1.82
2018-03-20T01:54:27.321Z,1.89
2018-03-20T01:54:27.893Z,1.90
2018-03-20T01:54:28.499Z,1.90
2018-03-20T01:54:29.103Z,1.87
2018-03-20T01:54:29.694Z,1.87
2018-03-20T01:54:30.292Z,1.80
2018-03-20T01:54:30.893Z,1.87
2018-03-20T01:54:31.492Z,1.93
2018-03-20T01:55:25.999Z,1.87
2018-03-20T01:55:26.569Z,1.89
2018-03-20T01:55:27.168Z,1.93
2018-03-20T01:55:27.768Z,1.91
2018-03-20T01:55:28.368Z,1.89
2018-03-20T01:55:28.967Z,1.93
2018-03-20T01:55:29.567Z,1.89
2018-03-20T01:55:30.167Z,1.89
2018-03-20T01:56:23.655Z,1.87
2018-03-20T01:56:24.220Z,1.87
2018-03-20T01:56:24.819Z,1.94
2018-03-20T01:56:25.573Z,1.90
2018-03-20T01:56:26.023Z,1.89
2018-03-20T01:56:26.619Z,1.90
2018-03-20T01:56:27.224Z,1.89
2018-03-20T01:56:27.821Z,1.97
2018-03-20T01:57:21.300Z,1.90
2018-03-20T01:57:21.871Z,1.93
2018-03-20T01:57:22.473Z,2.01
2018-03-20T01:57:23.073Z,1.99
2018-03-20T01:57:23.672Z,1.93
2018-03-20T01:57:24.272Z,2.01
2018-03-20T01:57:24.872Z,1.87
2018-03-20T01:57:25.472Z,1.99
2018-03-20T01:58:19.975Z,2.01
2018-03-20T01:58:20.547Z,2.01
2018-03-20T01:58:21.147Z,2.04
2018-03-20T01:58:21.746Z,1.98
2018-03-20T01:58:22.349Z,2.06
2018-03-20T01:58:22.947Z,2.04
2018-03-20T01:58:23.546Z,1.98
2018-03-20T01:58:24.146Z,1.98
2018-03-20T01:59:17.628Z,2.01
2018-03-20T01:59:18.200Z,2.01
2018-03-20T01:59:18.800Z,2.02
2018-03-20T01:59:19.400Z,1.99
2018-03-20T01:59:19.999Z,2.01
2018-03-20T01:59:20.599Z,2.01
2018-03-20T01:59:21.199Z,1.99
2018-03-20T01:59:21.798Z,2.02
2018-03-20T02:00:16.306Z,2.08
2018-03-20T02:00:16.875Z,2.01
2018-03-20T02:00:17.477Z,2.06
2018-03-20T02:00:18.079Z,2.08
2018-03-20T02:00:18.674Z,2.01
2018-03-20T02:00:19.275Z,2.02
2018-03-20T02:00:19.874Z,1.98
2018-03-20T02:00:20.475Z,2.06
2018-03-20T02:01:14.979Z,2.09
2018-03-20T02:01:15.550Z,2.09
2018-03-20T02:01:16.150Z,2.13
2018-03-20T02:01:16.750Z,2.12
2018-03-20T02:01:17.350Z,2.02
2018-03-20T02:01:17.949Z,2.15
2018-03-20T02:01:18.549Z,2.09
2018-03-20T02:01:19.149Z,2.09
2018-03-20T02:02:13.656Z,2.08
2018-03-20T02:02:14.230Z,2.10
2018-03-20T02:02:14.827Z,2.08
2018-03-20T02:02:15.426Z,2.08
2018-03-20T02:02:16.026Z,2.08
2018-03-20T02:02:16.626Z,2.09
2018-03-20T02:02:17.226Z,2.13
2018-03-20T02:02:17.825Z,2.09
2018-03-20T02:03:12.330Z,2.19
2018-03-20T02:03:12.901Z,2.17
2018-03-20T02:03:13.503Z,2.15
2018-03-20T02:03:14.102Z,2.16
2018-03-20T02:03:14.702Z,2.12
2018-03-20T02:03:15.300Z,2.10
2018-03-20T02:03:15.904Z,2.13
2018-03-20T02:03:16.500Z,2.13
2018-03-20T02:04:11.005Z,2.17
2018-03-20T02:04:11.578Z,2.17
2018-03-20T02:04:12.180Z,2.17
2018-03-20T02:04:12.778Z,2.17
2018-03-20T02:04:13.377Z,2.22
2018-03-20T02:04:13.980Z,2.23
2018-03-20T02:04:14.580Z,2.22
2018-03-20T02:04:15.176Z,2.22
2018-03-20T02:05:09.682Z,2.17
2018-03-20T02:05:10.254Z,2.16
2018-03-20T02:05:10.854Z,2.19
2018-03-20T02:05:11.457Z,2.20
2018-03-20T02:05:12.053Z,2.28
2018-03-20T02:05:12.652Z,2.26
2018-03-20T02:05:13.259Z,2.17
2018-03-20T02:05:13.852Z,2.26
2018-03-20T02:06:08.358Z,2.31
2018-03-20T02:06:08.928Z,2.30
2018-03-20T02:06:09.530Z,2.23
2018-03-20T02:06:10.133Z,2.34
2018-03-20T02:06:10.728Z,2.23
2018-03-20T02:06:11.329Z,2.22
2018-03-20T02:06:11.928Z,2.28
2018-03-20T02:06:12.527Z,2.30
2018-03-20T02:07:06.013Z,2.38
2018-03-20T02:07:06.583Z,2.33
2018-03-20T02:07:07.181Z,2.38
2018-03-20T02:07:07.781Z,2.37
2018-03-20T02:07:08.384Z,2.38
2018-03-20T02:07:08.981Z,2.40
2018-03-20T02:07:09.582Z,2.41
2018-03-20T02:07:10.186Z,2.44
2018-03-20T02:08:03.664Z,2.45
2018-03-20T02:08:04.236Z,2.40
2018-03-20T02:08:04.833Z,2.41
2018-03-20T02:08:05.434Z,2.37
2018-03-20T02:08:06.033Z,2.45
2018-03-20T02:08:06.632Z,2.48
2018-03-20T02:08:07.234Z,2.40
2018-03-20T02:08:07.833Z,2.40
2018-03-20T02:09:02.344Z,2.40
2018-03-20T02:09:02.915Z,2.41
2018-03-20T02:09:03.513Z,2.44
2018-03-20T02:09:04.112Z,2.38
2018-03-20T02:09:04.712Z,2.40
2018-03-20T02:09:05.312Z,2.45
2018-03-20T02:09:05.912Z,2.44
2018-03-20T02:09:06.515Z,2.49
2018-03-20T02:09:59.996Z,2.48
2018-03-20T02:10:00.567Z,2.40
2018-03-20T02:10:01.165Z,2.51
2018-03-20T02:10:01.764Z,2.41
2018-03-20T02:10:02.366Z,2.40
2018-03-20T02:10:02.965Z,2.41
2018-03-20T02:10:03.563Z,2.46
2018-03-20T02:10:04.166Z,2.45
2018-03-20T02:10:58.674Z,2.51
2018-03-20T02:10:59.240Z,2.46
2018-03-20T02:10:59.841Z,2.44
2018-03-20T02:11:00.439Z,2.37
2018-03-20T02:11:01.038Z,2.44
2018-03-20T02:11:01.645Z,2.37
2018-03-20T02:11:02.239Z,2.46
2018-03-20T02:11:02.839Z,2.41
2018-03-20T02:11:56.323Z,2.49
2018-03-20T02:11:56.894Z,2.46
2018-03-20T02:11:57.492Z,2.44
2018-03-20T02:11:58.091Z,2.49
2018-03-20T02:11:58.694Z,2.51
2018-03-20T02:11:59.294Z,2.41
2018-03-20T02:11:59.891Z,2.45
2018-03-20T02:12:00.495Z,2.46
2018-03-20T02:12:55.002Z,2.51
2018-03-20T02:12:55.578Z,2.48
2018-03-20T02:12:56.166Z,2.48
2018-03-20T02:12:56.769Z,2.49
2018-03-20T02:12:57.368Z,2.49
2018-03-20T02:12:57.966Z,2.49
2018-03-20T02:12:58.564Z,2.46
2018-03-20T02:12:59.166Z,2.41
2018-03-20T02:13:52.651Z,2.51
2018-03-20T02:13:53.221Z,2.58
2018-03-20T02:13:53.821Z,2.58
2018-03-20T02:13:54.420Z,2.53
2018-03-20T02:13:55.022Z,2.55
2018-03-20T02:13:55.620Z,2.52
2018-03-20T02:13:56.220Z,2.48
2018-03-20T02:13:56.819Z,2.55
2018-03-20T02:14:51.325Z,2.56
2018-03-20T02:14:51.896Z,2.59
2018-03-20T02:14:52.494Z,2.55
2018-03-20T02:14:53.095Z,2.58
2018-03-20T02:14:53.697Z,2.58
2018-03-20T02:14:54.296Z,2.52
2018-03-20T02:14:54.894Z,2.56
2018-03-20T02:14:55.495Z,2.56
2018-03-20T02:15:48.976Z,2.56
2018-03-20T02:15:49.548Z,2.56
2018-03-20T02:15:50.151Z,2.58
2018-03-20T02:15:50.749Z,2.59
2018-03-20T02:15:51.347Z,2.59
2018-03-20T02:15:51.947Z,2.58
2018-03-20T02:15:52.548Z,2.63
2018-03-20T02:15:53.148Z,2.56
2018-03-20T02:16:47.653Z,2.58
2018-03-20T02:16:48.224Z,2.64
2018-03-20T02:16:48.823Z,2.56
2018-03-20T02:16:49.422Z,2.59
2018-03-20T02:16:50.022Z,2.59
2018-03-20T02:16:50.624Z,2.59
2018-03-20T02:16:51.221Z,2.59
2018-03-20T02:16:51.821Z,2.59
2018-03-20T02:17:45.305Z,2.58
2018-03-20T02:17:45.875Z,2.59
2018-03-20T02:17:46.478Z,2.70
2018-03-20T02:17:47.075Z,2.53
2018-03-20T02:17:47.675Z,2.67
2018-03-20T02:17:48.275Z,2.66
2018-03-20T02:17:48.876Z,2.64
2018-03-20T02:17:49.474Z,2.63
2018-03-20T02:18:42.957Z,2.67
2018-03-20T02:18:43.529Z,2.66
2018-03-20T02:18:44.127Z,2.64
2018-03-20T02:18:44.727Z,2.64
2018-03-20T02:18:45.325Z,2.63
2018-03-20T02:18:45.928Z,2.63
2018-03-20T02:18:46.533Z,2.66
2018-03-20T02:18:47.125Z,2.66
2018-03-20T02:19:41.633Z,2.61
2018-03-20T02:19:42.203Z,2.64
2018-03-20T02:19:42.808Z,2.67
2018-03-20T02:19:43.400Z,2.66
2018-03-20T02:19:44.000Z,2.67
2018-03-20T02:19:44.602Z,2.66
2018-03-20T02:19:45.226Z,2.69
2018-03-20T02:19:45.801Z,2.66
2018-03-20T02:20:39.288Z,2.63
2018-03-20T02:20:39.855Z,2.70
2018-03-20T02:20:40.453Z,2.69
2018-03-20T02:20:41.053Z,2.59
2018-03-20T02:20:41.654Z,2.67
2018-03-20T02:20:42.263Z,2.69
2018-03-20T02:20:42.853Z,2.69
2018-03-20T02:20:43.454Z,2.61
2018-03-20T02:21:36.937Z,2.66
2018-03-20T02:21:37.507Z,2.67
2018-03-20T02:21:38.104Z,2.63
2018-03-20T02:21:38.705Z,2.64
2018-03-20T02:21:39.307Z,2.64
2018-03-20T02:21:39.905Z,2.67
2018-03-20T02:21:40.506Z,2.69
2018-03-20T02:21:41.106Z,2.64
2018-03-20T02:22:35.608Z,2.69
2018-03-20T02:22:36.185Z,2.67
2018-03-20T02:22:36.780Z,2.66
2018-03-20T02:22:37.380Z,2.69
2018-03-20T02:22:37.980Z,2.74
2018-03-20T02:22:38.582Z,2.70
2018-03-20T02:22:39.180Z,2.70
2018-03-20T02:22:39.784Z,2.66
2018-03-20T02:23:33.264Z,2.67
2018-03-20T02:23:33.833Z,2.69
2018-03-20T02:23:34.434Z,2.69
2018-03-20T02:23:35.044Z,2.70
2018-03-20T02:23:35.634Z,2.70
2018-03-20T02:23:36.233Z,2.66
2018-03-20T02:23:36.833Z,2.70
2018-03-20T02:23:37.432Z,2.66
2018-03-20T02:24:31.939Z,2.63
2018-03-20T02:24:32.509Z,2.64
2018-03-20T02:24:33.107Z,2.70
2018-03-20T02:24:33.708Z,2.69
2018-03-20T02:24:34.312Z,2.66
2018-03-20T02:24:34.907Z,2.64
2018-03-20T02:24:35.509Z,2.67
2018-03-20T02:24:36.107Z,2.69
2018-03-20T02:25:29.591Z,2.63
2018-03-20T02:25:30.161Z,2.64
2018-03-20T02:25:30.761Z,2.64
2018-03-20T02:25:31.359Z,2.63
2018-03-20T02:25:31.959Z,2.63
2018-03-20T02:25:32.560Z,2.69
2018-03-20T02:25:33.158Z,2.67
2018-03-20T02:25:33.758Z,2.64
2018-03-20T02:26:28.264Z,2.66
2018-03-20T02:26:28.836Z,2.64
2018-03-20T02:26:29.434Z,2.67
2018-03-20T02:26:30.039Z,2.61
2018-03-20T02:26:30.634Z,2.63
2018-03-20T02:26:31.235Z,2.64
2018-03-20T02:26:31.840Z,2.59
2018-03-20T02:26:32.435Z,2.61
2018-03-20T02:27:26.942Z,2.64
2018-03-20T02:27:27.510Z,2.64
2018-03-20T02:27:28.114Z,2.63
2018-03-20T02:27:28.712Z,2.59
2018-03-20T02:27:29.312Z,2.70
2018-03-20T02:27:29.915Z,2.69
2018-03-20T02:27:30.509Z,2.66
2018-03-20T02:27:31.109Z,2.66
2018-03-20T02:28:24.593Z,2.55
2018-03-20T02:28:25.164Z,2.56
2018-03-20T02:28:25.763Z,2.59
2018-03-20T02:28:26.365Z,2.58
2018-03-20T02:28:26.962Z,2.59
2018-03-20T02:28:27.571Z,2.69
2018-03-20T02:28:28.164Z,2.61
2018-03-20T02:28:28.761Z,2.66
2018-03-20T02:29:23.270Z,2.59
2018-03-20T02:29:23.838Z,2.59
2018-03-20T02:29:24.444Z,2.63
2018-03-20T02:29:25.038Z,2.59
2018-03-20T02:29:25.639Z,2.63
2018-03-20T02:29:26.237Z,2.56
2018-03-20T02:29:26.837Z,2.63
2018-03-20T02:29:27.443Z,2.59
2018-03-20T02:30:21.944Z,2.63
2018-03-20T02:30:22.513Z,2.59
2018-03-20T02:30:23.113Z,2.66
2018-03-20T02:30:23.713Z,2.61
2018-03-20T02:30:24.313Z,2.63
2018-03-20T02:30:24.914Z,2.59
2018-03-20T02:30:25.514Z,2.59
2018-03-20T02:30:26.124Z,2.67
2018-03-20T02:31:19.597Z,2.61
2018-03-20T02:31:20.167Z,2.59
2018-03-20T02:31:20.766Z,2.67
2018-03-20T02:31:21.374Z,2.67
2018-03-20T02:31:21.967Z,2.56
2018-03-20T02:31:22.566Z,2.73
2018-03-20T02:31:23.168Z,2.63
2018-03-20T02:31:23.765Z,2.67
2018-03-20T02:32:18.272Z,2.59
2018-03-20T02:32:18.848Z,2.63
2018-03-20T02:32:19.441Z,2.64
2018-03-20T02:32:20.043Z,2.70
2018-03-20T02:32:20.640Z,2.70
2018-03-20T02:32:21.240Z,2.63
2018-03-20T02:32:21.841Z,2.67
2018-03-20T02:32:22.439Z,2.64
2018-03-20T02:33:16.949Z,2.64
2018-03-20T02:33:17.517Z,2.63
2018-03-20T02:33:18.116Z,2.63
2018-03-20T02:33:18.717Z,2.69
2018-03-20T02:33:19.323Z,2.67
2018-03-20T02:33:19.918Z,2.67
2018-03-20T02:33:20.521Z,2.70
2018-03-20T02:33:21.115Z,2.64
2018-03-20T02:34:15.626Z,2.66
2018-03-20T02:34:16.196Z,2.67
2018-03-20T02:34:16.792Z,2.66
2018-03-20T02:34:17.392Z,2.66
2018-03-20T02:34:17.991Z,2.70
2018-03-20T02:34:18.594Z,2.67
2018-03-20T02:34:19.191Z,2.70
2018-03-20T02:34:19.794Z,2.70
2018-03-20T02:35:14.299Z,2.67
2018-03-20T02:35:14.869Z,2.64
2018-03-20T02:35:15.468Z,2.70
2018-03-20T02:35:16.069Z,2.67
2018-03-20T02:35:16.668Z,2.71
2018-03-20T02:35:17.267Z,2.71
2018-03-20T02:35:17.869Z,2.67
2018-03-20T02:35:18.468Z,2.70
2018-03-20T02:36:12.974Z,2.69
2018-03-20T02:36:13.546Z,2.67
2018-03-20T02:36:14.144Z,2.70
2018-03-20T02:36:14.743Z,2.70
2018-03-20T02:36:15.343Z,2.70
2018-03-20T02:36:15.948Z,2.69
2018-03-20T02:36:16.543Z,2.70
2018-03-20T02:36:17.142Z,2.69
2018-03-20T02:37:11.650Z,2.63
2018-03-20T02:37:12.221Z,2.63
2018-03-20T02:37:12.819Z,2.67
2018-03-20T02:37:13.419Z,2.66
2018-03-20T02:37:14.022Z,2.69
2018-03-20T02:37:14.619Z,2.66
2018-03-20T02:37:15.217Z,2.64
2018-03-20T02:37:15.817Z,2.63
2018-03-20T02:38:10.326Z,2.63
2018-03-20T02:38:10.895Z,2.63
2018-03-20T02:38:11.497Z,2.63
2018-03-20T02:38:12.095Z,2.70
2018-03-20T02:38:12.694Z,2.67
2018-03-20T02:38:13.296Z,2.70
2018-03-20T02:38:13.897Z,2.69
2018-03-20T02:38:14.505Z,2.63
2018-03-20T02:39:08.999Z,2.59
2018-03-20T02:39:09.573Z,2.59
2018-03-20T02:39:10.171Z,2.61
2018-03-20T02:39:10.770Z,2.63
2018-03-20T02:39:11.371Z,2.56
2018-03-20T02:39:11.971Z,2.63
2018-03-20T02:39:12.570Z,2.59
2018-03-20T02:39:13.171Z,2.58
2018-03-20T02:56:30.308Z,1.90
2018-03-20T02:56:30.880Z,2.02
2018-03-20T02:56:31.479Z,1.97
2018-03-20T02:56:32.078Z,1.90
2018-03-20T02:56:32.680Z,1.93
2018-03-20T02:56:33.277Z,1.93
2018-03-20T02:56:33.878Z,1.91
2018-03-20T02:56:34.479Z,1.93
2018-03-20T02:57:28.985Z,1.98
2018-03-20T02:57:29.555Z,1.98
2018-03-20T02:57:30.155Z,2.01
2018-03-20T02:57:30.754Z,1.98
2018-03-20T02:57:31.354Z,2.01
2018-03-20T02:57:31.955Z,1.93
2018-03-20T02:57:32.554Z,1.98
2018-03-20T02:57:33.156Z,2.04
2018-03-20T02:58:27.663Z,2.02
2018-03-20T02:58:28.232Z,1.99
2018-03-20T02:58:28.831Z,2.06
2018-03-20T02:58:29.430Z,1.98
2018-03-20T02:58:30.032Z,2.08
2018-03-20T02:58:30.631Z,2.04
2018-03-20T02:58:31.231Z,1.99
2018-03-20T02:58:31.831Z,2.04
2018-03-20T02:59:26.338Z,1.90
2018-03-20T02:59:26.906Z,1.93
2018-03-20T02:59:27.507Z,1.91
2018-03-20T02:59:28.107Z,1.94
2018-03-20T02:59:28.707Z,1.93
2018-03-20T02:59:29.307Z,1.93
2018-03-20T02:59:29.907Z,1.93
2018-03-20T02:59:30.508Z,2.06
2018-03-20T03:00:23.991Z,1.98
2018-03-20T03:00:24.561Z,1.94
2018-03-20T03:00:25.169Z,1.87
2018-03-20T03:00:25.762Z,1.98
2018-03-20T03:00:26.362Z,1.90
2018-03-20T03:00:26.961Z,1.87
2018-03-20T03:00:27.568Z,1.91
2018-03-20T03:00:28.161Z,1.91
2018-03-20T03:01:22.666Z,1.91
2018-03-20T03:01:23.236Z,1.94
2018-03-20T03:01:23.835Z,1.91
2018-03-20T03:01:24.435Z,1.91
2018-03-20T03:01:25.036Z,1.90
2018-03-20T03:01:25.633Z,1.87
2018-03-20T03:01:26.233Z,1.91
2018-03-20T03:01:26.837Z,1.85
2018-03-20T03:02:21.342Z,1.87
2018-03-20T03:02:21.912Z,1.90
2018-03-20T03:02:22.512Z,1.83
2018-03-20T03:02:23.111Z,1.91
2018-03-20T03:02:23.712Z,1.98
2018-03-20T03:02:24.313Z,1.91
2018-03-20T03:02:24.912Z,1.91
2018-03-20T03:02:25.511Z,1.98
2018-03-20T03:03:20.024Z,1.91
2018-03-20T03:03:20.588Z,1.98
2018-03-20T03:03:21.190Z,1.98
2018-03-20T03:03:21.788Z,1.93
2018-03-20T03:03:22.387Z,1.98
2018-03-20T03:03:22.987Z,2.01
2018-03-20T03:03:23.588Z,1.98
2018-03-20T03:03:24.187Z,2.02
2018-03-20T03:04:18.695Z,1.99
2018-03-20T03:04:19.265Z,2.04
2018-03-20T03:04:19.867Z,1.98
2018-03-20T03:04:20.464Z,2.02
2018-03-20T03:04:21.062Z,1.98
2018-03-20T03:04:21.663Z,2.04
2018-03-20T03:04:22.263Z,2.08
2018-03-20T03:04:22.862Z,2.01
2018-03-20T03:05:17.371Z,2.06
2018-03-20T03:05:17.941Z,2.15
2018-03-20T03:05:18.540Z,2.08
2018-03-20T03:05:19.140Z,2.13
2018-03-20T03:05:19.741Z,2.15
2018-03-20T03:05:20.338Z,2.13
2018-03-20T03:05:20.947Z,2.12
2018-03-20T03:05:21.539Z,2.16
2018-03-20T03:06:15.025Z,2.20
2018-03-20T03:06:15.593Z,2.20
2018-03-20T03:06:16.193Z,2.20
2018-03-20T03:06:16.792Z,2.19
2018-03-20T03:06:17.392Z,2.20
2018-03-20T03:06:17.995Z,2.19
2018-03-20T03:06:18.591Z,2.17
2018-03-20T03:06:19.191Z,2.20
2018-03-20T03:07:13.696Z,2.30
2018-03-20T03:07:14.267Z,2.27
2018-03-20T03:07:14.867Z,2.26
2018-03-20T03:07:15.468Z,2.28
2018-03-20T03:07:16.070Z,2.31
2018-03-20T03:07:16.666Z,2.31
2018-03-20T03:07:17.266Z,2.30
2018-03-20T03:07:17.867Z,2.23
2018-03-20T03:08:12.376Z,2.37
2018-03-20T03:08:12.944Z,2.44
2018-03-20T03:08:13.543Z,2.45
2018-03-20T03:08:14.143Z,2.27
2018-03-20T03:08:14.743Z,2.41
2018-03-20T03:08:15.342Z,2.41
2018-03-20T03:08:15.946Z,2.33
2018-03-20T03:08:16.540Z,2.37
2018-03-20T03:09:11.047Z,2.41
2018-03-20T03:09:11.619Z,2.52
2018-03-20T03:09:12.236Z,2.44
2018-03-20T03:09:12.818Z,2.45
2018-03-20T03:09:13.421Z,2.44
2018-03-20T03:09:14.018Z,2.44
2018-03-20T03:09:14.629Z,2.45
2018-03-20T03:09:15.219Z,2.48
2018-03-20T03:10:09.724Z,2.49
2018-03-20T03:10:10.294Z,2.44
2018-03-20T03:10:10.894Z,2.45
2018-03-20T03:10:11.495Z,2.38
2018-03-20T03:10:12.094Z,2.41
2018-03-20T03:10:12.693Z,2.44
2018-03-20T03:10:13.294Z,2.35
2018-03-20T03:10:13.892Z,2.41
2018-03-20T03:11:08.401Z,2.48
2018-03-20T03:11:08.970Z,2.45
2018-03-20T03:11:09.570Z,2.41
2018-03-20T03:11:10.173Z,2.45
2018-03-20T03:11:10.769Z,2.48
2018-03-20T03:11:11.369Z,2.46
2018-03-20T03:11:11.969Z,2.46
2018-03-20T03:11:12.569Z,2.49
2018-03-20T03:12:06.054Z,2.55
2018-03-20T03:12:06.623Z,2.58
2018-03-20T03:12:07.222Z,2.59
2018-03-20T03:12:07.823Z,2.58
2018-03-20T03:12:08.423Z,2.55
2018-03-20T03:12:09.023Z,2.55
2018-03-20T03:12:09.623Z,2.55
2018-03-20T03:12:10.221Z,2.52
2018-03-20T03:13:04.728Z,2.55
2018-03-20T03:13:05.299Z,2.56
2018-03-20T03:13:05.897Z,2.56
2018-03-20T03:13:06.500Z,2.55
2018-03-20T03:13:07.098Z,2.61
2018-03-20T03:13:07.699Z,2.58
2018-03-20T03:13:08.297Z,2.56
2018-03-20T03:13:08.898Z,2.55
2018-03-20T03:14:02.381Z,2.56
2018-03-20T03:14:02.950Z,2.67
2018-03-20T03:14:03.550Z,2.61
2018-03-20T03:14:04.150Z,2.61
2018-03-20T03:14:04.750Z,2.59
2018-03-20T03:14:05.350Z,2.67
2018-03-20T03:14:05.949Z,2.59
2018-03-20T03:14:06.555Z,2.64
2018-03-20T03:15:00.033Z,2.66
2018-03-20T03:15:00.603Z,2.64
2018-03-20T03:15:01.202Z,2.74
2018-03-20T03:15:01.802Z,2.66
2018-03-20T03:15:02.414Z,2.70
2018-03-20T03:15:02.998Z,2.64
2018-03-20T03:15:03.599Z,2.69
2018-03-20T03:15:04.201Z,2.63
2018-03-20T03:15:58.707Z,2.71
2018-03-20T03:15:59.279Z,2.73
2018-03-20T03:15:59.877Z,2.73
2018-03-20T03:16:00.476Z,2.73
2018-03-20T03:16:01.075Z,2.70
2018-03-20T03:16:01.679Z,2.69
2018-03-20T03:16:02.276Z,2.69
2018-03-20T03:16:02.877Z,2.69
2018-03-20T03:16:56.358Z,2.74
2018-03-20T03:16:56.930Z,2.74
2018-03-20T03:16:57.529Z,2.69
2018-03-20T03:16:58.128Z,2.69
2018-03-20T03:16:58.730Z,2.73
2018-03-20T03:16:59.329Z,2.74
2018-03-20T03:16:59.928Z,2.71
2018-03-20T03:17:00.530Z,2.74
2018-03-20T03:17:55.036Z,2.76
2018-03-20T03:17:55.606Z,2.71
2018-03-20T03:17:56.208Z,2.74
2018-03-20T03:17:56.804Z,2.84
2018-03-20T03:17:57.404Z,2.84
2018-03-20T03:17:58.003Z,2.84
2018-03-20T03:17:58.604Z,2.76
2018-03-20T03:17:59.202Z,2.82
2018-03-20T03:18:53.713Z,2.82
2018-03-20T03:18:54.280Z,2.82
2018-03-20T03:18:54.880Z,2.79
2018-03-20T03:18:55.480Z,2.74
2018-03-20T03:18:56.081Z,2.85
2018-03-20T03:18:56.681Z,2.81
2018-03-20T03:18:57.279Z,2.81
2018-03-20T03:18:57.878Z,2.82
2018-03-20T03:19:52.387Z,2.87
2018-03-20T03:19:52.957Z,2.88
2018-03-20T03:19:53.556Z,2.91
2018-03-20T03:19:54.157Z,2.79
2018-03-20T03:19:54.756Z,2.92
2018-03-20T03:19:55.356Z,2.87
2018-03-20T03:19:55.955Z,2.87
2018-03-20T03:19:56.555Z,2.89
2018-03-20T03:20:51.061Z,2.82
2018-03-20T03:20:51.631Z,2.85
2018-03-20T03:20:52.231Z,2.92
2018-03-20T03:20:52.830Z,2.87
2018-03-20T03:20:53.430Z,2.79
2018-03-20T03:20:54.030Z,2.84
2018-03-20T03:20:54.632Z,2.87
2018-03-20T03:20:55.231Z,2.91
2018-03-20T03:21:49.739Z,2.85
2018-03-20T03:21:50.309Z,2.87
2018-03-20T03:21:50.907Z,2.84
2018-03-20T03:21:51.506Z,2.89
2018-03-20T03:21:52.106Z,2.88
2018-03-20T03:21:52.707Z,2.82
2018-03-20T03:21:53.307Z,2.85
2018-03-20T03:21:53.906Z,2.85
2018-03-20T03:22:48.412Z,2.84
2018-03-20T03:22:48.987Z,2.88
2018-03-20T03:22:49.583Z,2.91
2018-03-20T03:22:50.183Z,2.97
2018-03-20T03:22:50.783Z,2.91
2018-03-20T03:22:51.383Z,2.85
2018-03-20T03:22:51.982Z,2.87
2018-03-20T03:22:52.583Z,2.92
2018-03-20T03:23:46.067Z,2.94
2018-03-20T03:23:46.636Z,2.92
2018-03-20T03:23:47.235Z,2.94
2018-03-20T03:23:47.836Z,2.92
2018-03-20T03:23:48.435Z,2.94
2018-03-20T03:23:49.035Z,2.89
2018-03-20T03:23:49.636Z,2.94
2018-03-20T03:23:50.237Z,2.89
2018-03-20T03:24:44.749Z,2.91
2018-03-20T03:24:45.311Z,2.98
2018-03-20T03:24:45.911Z,2.98
2018-03-20T03:24:46.509Z,2.97
2018-03-20T03:24:47.109Z,2.97
2018-03-20T03:24:47.710Z,2.95
2018-03-20T03:24:48.309Z,3.00
2018-03-20T03:24:48.960Z,2.92
2018-03-20T03:25:42.395Z,3.00
2018-03-20T03:25:42.963Z,2.95
2018-03-20T03:25:43.563Z,2.97
2018-03-20T03:25:44.160Z,2.95
2018-03-20T03:25:44.761Z,2.95
2018-03-20T03:25:45.361Z,2.97
2018-03-20T03:25:45.959Z,2.97
2018-03-20T03:25:46.559Z,2.95
2018-03-20T03:26:41.079Z,2.95
2018-03-20T03:26:41.637Z,3.02
2018-03-20T03:26:42.239Z,3.05
2018-03-20T03:26:42.837Z,3.07
2018-03-20T03:26:43.437Z,3.10
2018-03-20T03:26:44.039Z,2.98
2018-03-20T03:26:44.637Z,3.00
2018-03-20T03:26:45.237Z,3.00
2018-03-20T03:27:39.756Z,3.02
2018-03-20T03:27:40.318Z,3.03
2018-03-20T03:27:40.916Z,3.00
2018-03-20T03:27:41.512Z,3.10
2018-03-20T03:27:42.112Z,3.06
2018-03-20T03:27:42.711Z,3.05
2018-03-20T03:27:43.311Z,3.03
2018-03-20T03:27:43.910Z,3.09
2018-03-20T03:28:37.401Z,3.03
2018-03-20T03:28:37.967Z,3.12
2018-03-20T03:28:38.566Z,3.07
2018-03-20T03:28:39.165Z,3.10
2018-03-20T03:28:39.765Z,3.07
2018-03-20T03:28:40.366Z,3.12
2018-03-20T03:28:40.965Z,3.09
2018-03-20T03:28:41.566Z,3.10
2018-03-20T03:29:36.071Z,3.10
2018-03-20T03:29:36.642Z,3.06
2018-03-20T03:29:37.240Z,3.07
2018-03-20T03:29:37.841Z,3.09
2018-03-20T03:29:38.439Z,3.12
2018-03-20T03:29:39.041Z,3.12
2018-03-20T03:29:39.639Z,3.07
2018-03-20T03:29:40.240Z,3.10
2018-03-20T03:30:33.725Z,3.10
2018-03-20T03:30:34.294Z,3.15
2018-03-20T03:30:34.894Z,3.09
2018-03-20T03:30:35.493Z,3.15
2018-03-20T03:30:36.102Z,3.12
2018-03-20T03:30:36.694Z,3.13
2018-03-20T03:30:37.293Z,3.16
2018-03-20T03:30:37.894Z,3.05
2018-03-20T03:31:31.378Z,3.15
2018-03-20T03:31:31.945Z,3.07
2018-03-20T03:31:32.545Z,3.23
2018-03-20T03:31:33.146Z,3.13
2018-03-20T03:31:33.745Z,3.16
2018-03-20T03:31:34.345Z,3.15
2018-03-20T03:31:34.946Z,3.15
2018-03-20T03:31:35.545Z,3.15
2018-03-20T03:32:30.051Z,3.13
2018-03-20T03:32:30.620Z,3.10
2018-03-20T03:32:31.219Z,3.18
2018-03-20T03:32:31.819Z,3.15
2018-03-20T03:32:32.420Z,3.16
2018-03-20T03:32:33.020Z,3.16
2018-03-20T03:32:33.619Z,3.21
2018-03-20T03:32:34.221Z,3.16
2018-03-20T03:33:27.702Z,3.18
2018-03-20T03:33:28.272Z,3.18
2018-03-20T03:33:28.872Z,3.20
2018-03-20T03:33:29.472Z,3.21
2018-03-20T03:33:30.073Z,3.20
2018-03-20T03:33:30.671Z,3.06
2018-03-20T03:33:31.272Z,3.20
2018-03-20T03:33:31.873Z,3.18
2018-03-20T03:34:26.376Z,3.16
2018-03-20T03:34:26.946Z,3.16
2018-03-20T03:34:27.548Z,3.20
2018-03-20T03:34:28.147Z,3.12
2018-03-20T03:34:28.746Z,3.21
2018-03-20T03:34:29.346Z,3.16
2018-03-20T03:34:29.946Z,3.18
2018-03-20T03:34:30.544Z,3.16
2018-03-20T03:35:24.030Z,3.24
2018-03-20T03:35:24.600Z,3.15
2018-03-20T03:35:25.199Z,3.23
2018-03-20T03:35:25.799Z,3.23
2018-03-20T03:35:26.399Z,3.28
2018-03-20T03:35:26.999Z,3.21
2018-03-20T03:35:27.599Z,3.25